createdAt,value
2018-07-20T00:00:49.990Z,14.83
2018-07-20T00:02:50.130Z,14.82
2018-07-20T00:04:50.742Z,14.82
2018-07-20T00:06:50.072Z,14.80
2018-07-20T00:08:50.170Z,14.79
2018-07-20T00:10:50.332Z,14.76
2018-07-20T00:12:50.495Z,14.72
2018-07-20T00:14:50.599Z,14.70
2018-07-20T00:16:50.377Z,14.67
2018-07-20T00:18:50.662Z,14.65
2018-07-20T00:20:49.941Z,14.62
2018-07-20T00:22:50.155Z,14.61
2018-07-20T00:24:50.327Z,14.61
2018-07-20T00:26:50.654Z,14.61
2018-07-20T00:28:49.865Z,14.61
2018-07-20T00:30:50.009Z,14.58
2018-07-20T00:32:50.126Z,14.54
2018-07-20T00:34:50.681Z,14.54
2018-07-20T00:36:50.023Z,14.56
2018-07-20T00:38:50.381Z,14.59
2018-07-20T00:40:50.616Z,14.56
2018-07-20T00:42:50.886Z,14.55
2018-07-20T00:44:50.092Z,14.55
2018-07-20T00:46:50.361Z,14.51
2018-07-20T00:48:50.554Z,14.48
2018-07-20T00:50:50.680Z,14.45
2018-07-20T00:52:50.858Z,14.41
2018-07-20T00:54:50.192Z,14.38
2018-07-20T00:56:50.543Z,14.36
2018-07-20T00:58:50.666Z,14.33
2018-07-20T01:00:50.809Z,14.32
2018-07-20T01:02:50.022Z,14.29
2018-07-20T01:04:50.539Z,14.26
2018-07-20T01:06:49.917Z,14.24
2018-07-20T01:08:50.501Z,14.20
2018-07-20T01:10:50.572Z,14.18
2018-07-20T01:12:50.653Z,14.14
2018-07-20T01:14:49.869Z,14.11
2018-07-20T01:16:50.158Z,14.10
2018-07-20T01:18:50.318Z,14.09
2018-07-20T01:20:50.473Z,14.09
2018-07-20T01:22:50.599Z,14.12
2018-07-20T01:24:50.692Z,14.11
2018-07-20T01:26:50.123Z,14.11
2018-07-20T01:28:50.289Z,14.03
2018-07-20T01:30:50.456Z,13.97
2018-07-20T01:32:50.592Z,13.97
2018-07-20T01:34:49.949Z,13.91
2018-07-20T01:36:50.384Z,13.90
2018-07-20T01:38:50.524Z,13.89
2018-07-20T01:40:50.732Z,13.88
2018-07-20T01:42:50.009Z,13.87
2018-07-20T01:44:50.202Z,13.83
2018-07-20T01:46:50.566Z,13.83
2018-07-20T01:48:50.655Z,13.81
2018-07-20T01:50:50.842Z,13.80
2018-07-20T01:52:49.952Z,13.76
2018-07-20T01:54:50.091Z,13.76
2018-07-20T01:56:50.421Z,13.75
2018-07-20T01:58:50.520Z,13.75
2018-07-20T02:00:50.745Z,13.77
2018-07-20T02:02:49.897Z,13.75
2018-07-20T02:04:50.568Z,13.71
2018-07-20T02:06:49.871Z,13.68
2018-07-20T02:08:49.956Z,13.68
2018-07-20T02:10:50.146Z,13.68
2018-07-20T02:12:50.314Z,13.66
2018-07-20T02:14:50.553Z,13.63
2018-07-20T02:16:49.934Z,13.60
2018-07-20T02:18:50.102Z,13.57
2018-07-20T02:20:50.224Z,13.57
2018-07-20T02:22:50.354Z,13.54
2018-07-20T02:24:50.458Z,13.54
2018-07-20T02:26:50.850Z,13.55
2018-07-20T02:28:49.990Z,13.53
2018-07-20T02:30:50.131Z,13.51
2018-07-20T02:32:50.284Z,13.48
2018-07-20T02:34:50.698Z,13.45
2018-07-20T02:36:50.039Z,13.43
2018-07-20T02:38:50.219Z,13.41
2018-07-20T02:40:50.414Z,13.42
2018-07-20T02:42:50.551Z,13.41
2018-07-20T02:44:50.776Z,13.38
2018-07-20T02:46:50.155Z,13.34
2018-07-20T02:48:50.420Z,13.32
2018-07-20T02:50:50.510Z,13.31
2018-07-20T02:52:50.800Z,13.32
2018-07-20T02:54:49.907Z,13.31
2018-07-20T02:56:50.235Z,13.30
2018-07-20T02:58:50.392Z,13.31
2018-07-20T03:00:50.650Z,13.30
2018-07-20T03:02:50.759Z,13.27
2018-07-20T03:04:50.153Z,13.22
2018-07-20T03:06:50.519Z,13.22
2018-07-20T03:08:50.908Z,13.21
2018-07-20T03:10:50.169Z,13.21
2018-07-20T03:12:50.400Z,13.15
2018-07-20T03:14:50.623Z,13.11
2018-07-20T03:16:49.993Z,13.09
2018-07-20T03:18:50.165Z,13.07
2018-07-20T03:20:50.356Z,13.05
2018-07-20T03:22:50.509Z,13.06
2018-07-20T03:24:50.648Z,13.07
2018-07-20T03:26:50.012Z,13.10
2018-07-20T03:28:50.320Z,13.10
2018-07-20T03:30:50.507Z,13.08
2018-07-20T03:32:51.456Z,13.09
2018-07-20T03:34:50.037Z,13.11
2018-07-20T03:36:50.326Z,13.09
2018-07-20T03:38:50.518Z,13.09
2018-07-20T03:40:50.726Z,13.05
2018-07-20T03:42:50.876Z,13.05
2018-07-20T03:44:50.025Z,13.03
2018-07-20T03:46:50.344Z,13.01
2018-07-20T03:48:50.813Z,13.01
2018-07-20T03:50:50.007Z,13.02
2018-07-20T03:52:50.126Z,13.03
2018-07-20T03:54:50.255Z,13.07
2018-07-20T03:56:50.631Z,13.07
2018-07-20T03:58:49.888Z,13.09
2018-07-20T04:00:50.192Z,13.12
2018-07-20T04:02:50.445Z,13.19
2018-07-20T04:04:49.873Z,13.19
2018-07-20T04:06:50.121Z,13.28
2018-07-20T04:08:50.326Z,13.33
2018-07-20T04:10:50.500Z,13.35
2018-07-20T04:12:50.650Z,13.41
2018-07-20T04:14:50.775Z,13.44
2018-07-20T04:16:50.140Z,13.48
2018-07-20T04:18:50.308Z,13.52
2018-07-20T04:20:50.465Z,13.58
2018-07-20T04:22:50.583Z,13.62
2018-07-20T04:24:50.758Z,13.75
2018-07-20T04:26:50.099Z,13.78
2018-07-20T04:28:50.258Z,13.88
2018-07-20T04:30:50.498Z,13.94
2018-07-20T04:32:50.690Z,14.00
2018-07-20T04:34:50.256Z,14.08
2018-07-20T04:36:50.540Z,14.15
2018-07-20T04:38:50.756Z,14.22
2018-07-20T04:40:50.013Z,14.33
2018-07-20T04:42:50.176Z,14.47
2018-07-20T04:44:50.363Z,14.48
2018-07-20T04:46:50.645Z,14.56
2018-07-20T04:48:49.862Z,14.64
2018-07-20T04:50:50.076Z,14.70
2018-07-20T04:52:50.262Z,14.78
2018-07-20T04:54:50.413Z,14.84
2018-07-20T04:56:50.712Z,14.97
2018-07-20T04:58:50.494Z,15.04
2018-07-20T05:00:49.870Z,15.22
2018-07-20T05:02:50.134Z,15.38
2018-07-20T05:04:50.557Z,15.50
2018-07-20T05:06:49.939Z,15.57
2018-07-20T05:08:50.267Z,15.62
2018-07-20T05:10:50.494Z,15.71
2018-07-20T05:12:50.633Z,15.80
2018-07-20T05:14:50.805Z,15.93
2018-07-20T05:16:50.091Z,16.00
2018-07-20T05:18:50.240Z,16.11
2018-07-20T05:20:50.412Z,16.31
2018-07-20T05:22:50.515Z,16.49
2018-07-20T05:24:50.640Z,16.68
2018-07-20T05:26:49.974Z,16.82
2018-07-20T05:28:50.122Z,16.96
2018-07-20T05:30:50.308Z,17.02
2018-07-20T05:32:50.390Z,17.19
2018-07-20T05:34:50.707Z,17.28
2018-07-20T05:36:50.588Z,17.49
2018-07-20T05:38:50.709Z,17.62
2018-07-20T05:40:50.845Z,17.78
2018-07-20T05:42:50.084Z,17.95
2018-07-20T05:44:50.251Z,18.02
2018-07-20T05:46:50.675Z,18.16
2018-07-20T05:48:49.983Z,18.26
2018-07-20T05:50:50.169Z,18.36
2018-07-20T05:52:50.334Z,18.39
2018-07-20T05:54:50.614Z,18.49
2018-07-20T05:56:50.031Z,18.60
2018-07-20T05:58:50.392Z,18.81
2018-07-20T06:00:50.604Z,18.86
2018-07-20T06:02:49.863Z,18.97
2018-07-20T06:04:50.388Z,19.06
2018-07-20T06:06:50.836Z,19.15
2018-07-20T06:08:50.012Z,19.19
2018-07-20T06:10:50.142Z,19.29
2018-07-20T06:12:50.331Z,19.48
2018-07-20T06:14:50.577Z,19.59
2018-07-20T06:16:49.958Z,19.63
2018-07-20T06:18:50.251Z,19.69
2018-07-20T06:20:50.435Z,19.99
2018-07-20T06:22:50.678Z,20.13
2018-07-20T06:24:50.892Z,20.3
2018-07-20T06:26:50.235Z,20.4
2018-07-20T06:28:50.468Z,20.4
2018-07-20T06:30:50.645Z,20.5
2018-07-20T06:32:49.923Z,20.5
2018-07-20T06:34:50.462Z,20.6
2018-07-20T06:36:50.831Z,20.6
2018-07-20T06:38:50.048Z,20.6
2018-07-20T06:40:50.805Z,20.6
2018-07-20T06:42:50.108Z,20.8
2018-07-20T06:44:50.289Z,21.0
2018-07-20T06:46:50.506Z,21.0
2018-07-20T06:48:50.673Z,21.0
2018-07-20T06:50:50.842Z,21.2
2018-07-20T06:52:49.974Z,21.4
2018-07-20T06:54:50.102Z,21.5
2018-07-20T06:56:50.405Z,21.5
2018-07-20T06:58:50.530Z,21.6
2018-07-20T07:00:50.640Z,21.7
2018-07-20T07:02:50.770Z,21.8
2018-07-20T07:04:50.033Z,21.9
2018-07-20T07:06:50.332Z,21.9
2018-07-20T07:08:50.452Z,22.0
2018-07-20T07:10:50.561Z,22.2
2018-07-20T07:12:50.651Z,22.4
2018-07-20T07:14:50.924Z,22.5
2018-07-20T07:16:50.268Z,22.5
2018-07-20T07:18:50.468Z,22.6
2018-07-20T07:20:50.615Z,22.7
2018-07-20T07:22:50.704Z,23.0
2018-07-20T07:24:50.798Z,23.0
2018-07-20T07:26:50.048Z,23.1
2018-07-20T07:28:50.206Z,23.3
2018-07-20T07:30:50.331Z,23.4
2018-07-20T07:32:50.428Z,23.5
2018-07-20T07:34:50.705Z,23.5
2018-07-20T07:36:50.047Z,23.7
2018-07-20T07:38:50.145Z,23.8
2018-07-20T07:40:50.241Z,24.0
2018-07-20T07:42:50.375Z,24.2
2018-07-20T07:44:50.492Z,24.2
2018-07-20T07:46:50.831Z,24.4
2018-07-20T07:48:49.921Z,24.6
2018-07-20T07:50:50.105Z,24.6
2018-07-20T07:52:50.183Z,24.8
2018-07-20T07:54:50.955Z,24.8
2018-07-20T07:56:50.466Z,25.0
2018-07-20T07:58:50.717Z,25.1
2018-07-20T08:00:49.940Z,25.1
2018-07-20T08:02:50.187Z,25.2
2018-07-20T08:04:50.755Z,25.4
2018-07-20T08:06:50.311Z,25.4
2018-07-20T08:08:50.548Z,25.6
2018-07-20T08:10:50.636Z,25.6
2018-07-20T08:12:49.866Z,25.8
2018-07-20T08:14:50.148Z,25.8
2018-07-20T08:16:50.574Z,25.9
2018-07-20T08:18:50.893Z,25.9
2018-07-20T08:20:50.296Z,25.9
2018-07-20T08:22:50.655Z,26.0
2018-07-20T08:24:50.785Z,26.1
2018-07-20T08:26:50.350Z,26.2
2018-07-20T08:28:50.619Z,26.2
2018-07-20T08:30:49.872Z,26.2
2018-07-20T08:32:50.035Z,26.4
2018-07-20T08:34:50.585Z,26.5
2018-07-20T08:36:50.136Z,26.6
2018-07-20T08:38:50.300Z,26.6
2018-07-20T08:40:50.457Z,26.7
2018-07-20T08:42:50.683Z,26.7
2018-07-20T08:44:49.965Z,26.8
2018-07-20T08:46:50.558Z,26.9
2018-07-20T08:48:50.758Z,27.0
2018-07-20T08:50:50.072Z,27.0
2018-07-20T08:52:50.309Z,27.0
2018-07-20T08:54:50.482Z,27.1
2018-07-20T08:56:49.948Z,27.2
2018-07-20T08:58:50.232Z,27.2
2018-07-20T09:00:50.487Z,27.2
2018-07-20T09:02:50.707Z,27.2
2018-07-20T09:04:50.487Z,27.3
2018-07-20T09:06:50.073Z,27.4
2018-07-20T09:08:50.160Z,27.4
2018-07-20T09:10:50.287Z,27.4
2018-07-20T09:12:50.550Z,27.4
2018-07-20T09:14:50.854Z,27.4
2018-07-20T09:16:50.345Z,27.4
2018-07-20T09:18:50.460Z,27.4
2018-07-20T09:20:51.070Z,27.4
2018-07-20T09:22:50.592Z,27.5
2018-07-20T09:24:50.747Z,27.5
2018-07-20T09:26:50.414Z,27.5
2018-07-20T09:28:50.743Z,27.6
2018-07-20T09:30:50.034Z,27.6
2018-07-20T09:32:50.450Z,27.6
2018-07-20T09:34:50.047Z,27.7
2018-07-20T09:36:50.583Z,27.8
2018-07-20T09:38:50.863Z,27.8
2018-07-20T09:40:50.020Z,27.8
2018-07-20T09:42:50.683Z,27.9
2018-07-20T09:44:50.140Z,28.0
2018-07-20T09:46:50.695Z,28.0
2018-07-20T09:48:50.071Z,28.0
2018-07-20T09:50:50.462Z,28.2
2018-07-20T09:52:50.744Z,28.4
2018-07-20T09:54:49.936Z,28.4
2018-07-20T09:56:50.293Z,28.5
2018-07-20T09:58:50.604Z,28.7
2018-07-20T10:00:50.793Z,28.9
2018-07-20T10:02:50.187Z,29.1
2018-07-20T10:04:49.924Z,29.2
2018-07-20T10:06:50.452Z,29.2
2018-07-20T10:08:50.607Z,29.4
2018-07-20T10:10:50.930Z,29.4
2018-07-20T10:12:50.179Z,29.6
2018-07-20T10:14:50.427Z,29.6
2018-07-20T10:16:49.958Z,29.6
2018-07-20T10:18:50.199Z,29.6
2018-07-20T10:20:50.482Z,29.7
2018-07-20T10:22:50.749Z,29.9
2018-07-20T10:24:49.931Z,29.9
2018-07-20T10:26:50.508Z,30.0
2018-07-20T10:28:50.784Z,30.2
2018-07-20T10:30:49.945Z,30.2
2018-07-20T10:32:50.131Z,30.2
2018-07-20T10:34:50.721Z,30.2
2018-07-20T10:36:50.215Z,30.3
2018-07-20T10:38:50.358Z,30.4
2018-07-20T10:40:50.455Z,30.4
2018-07-20T10:42:50.704Z,30.5
2018-07-20T10:44:49.843Z,30.5
2018-07-20T10:46:50.555Z,30.6
2018-07-20T10:48:50.196Z,30.6
2018-07-20T10:50:50.360Z,30.6
2018-07-20T10:52:50.540Z,30.6
2018-07-20T10:54:49.876Z,30.6
2018-07-20T10:56:50.348Z,30.6
2018-07-20T10:58:50.560Z,30.6
2018-07-20T11:00:50.722Z,30.6
2018-07-20T11:02:49.971Z,30.6
2018-07-20T11:04:50.470Z,30.6
2018-07-20T11:06:49.935Z,30.6
2018-07-20T11:08:50.132Z,30.6
2018-07-20T11:10:50.423Z,30.6
2018-07-20T11:12:50.604Z,30.6
2018-07-20T11:14:50.866Z,30.6
2018-07-20T11:16:50.363Z,30.6
2018-07-20T11:18:50.523Z,30.6
2018-07-20T11:20:50.677Z,30.6
2018-07-20T11:22:49.899Z,30.6
2018-07-20T11:24:50.077Z,30.7
2018-07-20T11:26:50.721Z,30.8
2018-07-20T11:28:49.889Z,30.9
2018-07-20T11:30:50.216Z,30.9
2018-07-20T11:32:50.364Z,30.9
2018-07-20T11:34:49.961Z,31.0
2018-07-20T11:36:50.398Z,31.0
2018-07-20T11:38:50.653Z,31.0
2018-07-20T11:40:50.750Z,31.1
2018-07-20T11:42:49.940Z,31.1
2018-07-20T11:44:50.226Z,31.1
2018-07-20T11:46:50.689Z,31.2
2018-07-20T11:48:49.883Z,31.2
2018-07-20T11:50:50.217Z,31.0
2018-07-20T11:52:50.524Z,31.0
2018-07-20T11:54:50.656Z,30.9
2018-07-20T11:56:50.170Z,30.9
2018-07-20T11:58:50.462Z,30.9
2018-07-20T12:00:50.697Z,30.9
2018-07-20T12:02:49.882Z,30.8
2018-07-20T12:04:50.634Z,30.9
2018-07-20T12:06:50.709Z,30.9
2018-07-20T12:08:49.934Z,30.9
2018-07-20T12:10:50.217Z,31.0
2018-07-20T12:12:50.676Z,31.0
2018-07-20T12:14:49.945Z,31.0
2018-07-20T12:16:50.338Z,31.0
2018-07-20T12:18:50.753Z,31.0
2018-07-20T12:20:50.169Z,31.1
2018-07-20T12:22:50.385Z,31.1
2018-07-20T12:24:50.570Z,31.1
2018-07-20T12:26:50.129Z,30.84
2018-07-20T12:28:50.280Z,30.92
2018-07-20T12:30:50.451Z,30.95
2018-07-20T12:32:50.652Z,30.86
2018-07-20T12:34:50.342Z,30.66
2018-07-20T12:36:50.774Z,30.56
2018-07-20T12:38:49.973Z,30.55
2018-07-20T12:40:50.197Z,30.54
2018-07-20T12:42:50.460Z,30.51
2018-07-20T12:44:50.635Z,30.44
2018-07-20T12:46:50.228Z,30.33
2018-07-20T12:48:50.509Z,30.21
2018-07-20T12:50:50.637Z,30.28
2018-07-20T12:52:50.857Z,30.51
2018-07-20T12:54:50.089Z,30.59
2018-07-20T12:56:50.583Z,30.57
2018-07-20T12:58:51.569Z,30.68
2018-07-20T13:00:49.965Z,30.37
2018-07-20T13:02:50.213Z,30.23
2018-07-20T13:04:49.926Z,30.23
2018-07-20T13:06:50.406Z,30.40
2018-07-20T13:08:50.669Z,30.8
2018-07-20T13:10:49.978Z,30.8
2018-07-20T13:12:50.259Z,30.9
2018-07-20T13:14:50.463Z,30.9
2018-07-20T13:16:49.898Z,31.0
2018-07-20T13:18:50.110Z,31.1
2018-07-20T13:20:50.248Z,31.2
2018-07-20T13:22:50.418Z,31.2
2018-07-20T13:24:50.893Z,31.2
2018-07-20T13:26:50.493Z,31.2
2018-07-20T13:28:50.620Z,31.1
2018-07-20T13:30:49.947Z,31.0
2018-07-20T13:32:50.132Z,31.0
2018-07-20T13:34:50.849Z,31.0
2018-07-20T13:36:50.300Z,31.0
2018-07-20T13:38:50.452Z,30.9
2018-07-20T13:40:50.654Z,30.9
2018-07-20T13:42:49.964Z,30.9
2018-07-20T13:44:50.166Z,30.9
2018-07-20T13:46:50.615Z,30.9
2018-07-20T13:48:50.774Z,30.9
2018-07-20T13:50:50.120Z,30.9
2018-07-20T13:52:50.960Z,30.9
2018-07-20T13:54:50.531Z,31.0
2018-07-20T13:56:50.070Z,31.1
2018-07-20T13:58:50.280Z,31.2
2018-07-20T14:00:50.440Z,31.2
2018-07-20T14:02:50.630Z,31.3
2018-07-20T14:04:50.393Z,31.4
2018-07-20T14:06:49.887Z,31.4
2018-07-20T14:08:49.991Z,31.6
2018-07-20T14:10:50.164Z,31.6
2018-07-20T14:12:50.392Z,31.7
2018-07-20T14:14:50.589Z,31.8
2018-07-20T14:16:50.634Z,31.8
2018-07-20T14:18:50.129Z,31.9
2018-07-20T14:20:50.403Z,31.9
2018-07-20T14:22:50.560Z,32.0
2018-07-20T14:24:50.799Z,32.0
2018-07-20T14:26:50.279Z,32.0
2018-07-20T14:28:50.421Z,32.0
2018-07-20T14:30:50.613Z,32.0
2018-07-20T14:32:49.890Z,32.1
2018-07-20T14:34:50.593Z,32.1
2018-07-20T14:36:50.047Z,32.1
2018-07-20T14:38:50.311Z,32.1
2018-07-20T14:40:50.593Z,32.1
2018-07-20T14:42:49.916Z,32.1
2018-07-20T14:44:50.096Z,32.0
2018-07-20T14:46:50.734Z,31.9
2018-07-20T14:48:49.967Z,31.9
2018-07-20T14:50:50.182Z,31.9
2018-07-20T14:52:50.383Z,31.9
2018-07-20T14:54:50.679Z,31.9
2018-07-20T14:56:50.282Z,32.0
2018-07-20T14:58:50.552Z,32.0
2018-07-20T15:00:50.677Z,32.0
2018-07-20T15:02:49.935Z,32.0
2018-07-20T15:04:50.926Z,32.0
2018-07-20T15:06:50.740Z,32.1
2018-07-20T15:08:50.014Z,32.1
2018-07-20T15:10:50.345Z,32.1
2018-07-20T15:12:50.647Z,32.2
2018-07-20T15:14:50.836Z,32.2
2018-07-20T15:16:50.268Z,32.2
2018-07-20T15:18:50.825Z,32.2
2018-07-20T15:20:49.986Z,32.2
2018-07-20T15:22:50.354Z,32.2
2018-07-20T15:24:50.626Z,32.2
2018-07-20T15:26:50.149Z,32.2
2018-07-20T15:28:50.408Z,32.2
2018-07-20T15:30:50.662Z,32.2
2018-07-20T15:32:50.841Z,32.2
2018-07-20T15:34:50.675Z,32.2
2018-07-20T15:36:50.145Z,32.2
2018-07-20T15:38:50.469Z,32.2
2018-07-20T15:40:50.773Z,32.2
2018-07-20T15:42:50.187Z,32.2
2018-07-20T15:44:50.631Z,32.2
2018-07-20T15:46:53.342Z,32.2
2018-07-20T15:48:50.282Z,32.2
2018-07-20T15:50:50.527Z,32.2
2018-07-20T15:53:37.951Z,32.2
2018-07-20T15:54:49.987Z,32.2
2018-07-20T15:56:50.415Z,32.2
2018-07-20T15:58:50.617Z,32.2
2018-07-20T16:00:50.778Z,32.3
2018-07-20T16:02:49.958Z,32.3
2018-07-20T16:04:50.590Z,32.3
2018-07-20T16:06:50.144Z,32.2
2018-07-20T16:08:50.390Z,32.2
2018-07-20T16:10:50.742Z,32.2
2018-07-20T16:12:49.994Z,32.2
2018-07-20T16:14:50.326Z,32.2
2018-07-20T16:16:49.931Z,32.3
2018-07-20T16:18:50.130Z,32.4
2018-07-20T16:20:50.421Z,32.4
2018-07-20T16:22:51.259Z,32.4
2018-07-20T16:24:50.755Z,32.4
2018-07-20T16:26:50.225Z,32.5
2018-07-20T16:28:50.514Z,32.4
2018-07-20T16:30:50.818Z,32.4
2018-07-20T16:32:50.098Z,32.4
2018-07-20T16:34:50.554Z,32.4
2018-07-20T16:36:49.973Z,32.4
2018-07-20T16:38:50.269Z,32.4
2018-07-20T16:40:50.612Z,32.4
2018-07-20T16:42:50.838Z,32.4
2018-07-20T16:44:50.168Z,32.4
2018-07-20T16:46:50.571Z,32.3
2018-07-20T16:48:50.723Z,32.2
2018-07-20T16:50:49.927Z,32.1
2018-07-20T16:52:50.226Z,32.1
2018-07-20T16:54:50.543Z,31.8
2018-07-20T16:56:50.003Z,31.7
2018-07-20T16:58:50.365Z,31.5
2018-07-20T17:00:50.564Z,31.4
2018-07-20T17:02:50.774Z,31.4
2018-07-20T17:04:50.637Z,31.3
2018-07-20T17:06:50.131Z,31.2
2018-07-20T17:08:50.356Z,31.2
2018-07-20T17:10:50.592Z,31.2
2018-07-20T17:12:50.767Z,31.2
2018-07-20T17:14:50.033Z,31.2
2018-07-20T17:16:50.490Z,31.2
2018-07-20T17:18:50.712Z,31.2
2018-07-20T17:20:50.167Z,31.26
2018-07-20T17:22:50.425Z,31.19
2018-07-20T17:24:50.791Z,31.09
2018-07-20T17:26:50.261Z,31.09
2018-07-20T17:28:50.571Z,30.91
2018-07-20T17:30:50.761Z,30.72
2018-07-20T17:32:50.021Z,30.73
2018-07-20T17:34:50.547Z,30.73
2018-07-20T17:36:50.075Z,30.56
2018-07-20T17:38:50.286Z,30.35
2018-07-20T17:40:50.702Z,30.31
2018-07-20T17:42:49.992Z,30.25
2018-07-20T17:44:50.208Z,30.11
2018-07-20T17:46:50.716Z,30.09
2018-07-20T17:48:50.031Z,30.01
2018-07-20T17:50:50.186Z,29.97
2018-07-20T17:52:50.423Z,29.83
2018-07-20T17:54:50.760Z,29.76
2018-07-20T17:56:50.267Z,29.58
2018-07-20T17:58:50.501Z,29.58
2018-07-20T18:00:50.784Z,29.34
2018-07-20T18:02:50.068Z,29.30
2018-07-20T18:04:50.614Z,29.31
2018-07-20T18:06:50.106Z,29.16
2018-07-20T18:08:50.426Z,29.07
2018-07-20T18:10:50.768Z,29.01
2018-07-20T18:12:49.922Z,28.97
2018-07-20T18:14:50.152Z,28.95
2018-07-20T18:16:50.547Z,28.97
2018-07-20T18:18:50.841Z,28.97
2018-07-20T18:20:50.005Z,29.00
2018-07-20T18:22:50.151Z,28.97
2018-07-20T18:24:50.461Z,28.95
2018-07-20T18:26:50.348Z,28.95
2018-07-20T18:28:50.918Z,28.73
2018-07-20T18:30:50.223Z,28.59
2018-07-20T18:32:50.537Z,28.59
2018-07-20T18:34:50.121Z,28.53
2018-07-20T18:36:50.570Z,28.45
2018-07-20T18:38:50.829Z,28.21
2018-07-20T18:40:49.996Z,28.02
2018-07-20T18:42:50.174Z,27.98
2018-07-20T18:44:50.478Z,27.82
2018-07-20T18:46:49.962Z,27.70
2018-07-20T18:48:50.245Z,27.60
2018-07-20T18:50:50.419Z,27.35
2018-07-20T18:52:50.721Z,27.11
2018-07-20T18:54:50.139Z,26.93
2018-07-20T18:56:50.607Z,26.79
2018-07-20T18:58:50.810Z,26.69
2018-07-20T19:00:50.059Z,26.61
2018-07-20T19:02:50.370Z,26.40
2018-07-20T19:04:50.032Z,26.22
2018-07-20T19:06:50.499Z,26.06
2018-07-20T19:08:50.833Z,25.99
2018-07-20T19:10:50.114Z,25.80
2018-07-20T19:12:50.361Z,25.74
2018-07-20T19:14:50.704Z,25.57
2018-07-20T19:16:50.234Z,25.50
2018-07-20T19:18:50.466Z,25.33
2018-07-20T19:20:50.680Z,25.24
2018-07-20T19:22:49.907Z,25.16
2018-07-20T19:24:50.279Z,25.03
2018-07-20T19:26:50.974Z,24.97
2018-07-20T19:28:50.250Z,24.84
2018-07-20T19:30:50.620Z,24.78
2018-07-20T19:32:49.974Z,24.68
2018-07-20T19:34:50.557Z,24.59
2018-07-20T19:36:50.032Z,24.56
2018-07-20T19:38:50.245Z,24.48
2018-07-20T19:40:50.475Z,24.45
2018-07-20T19:42:50.862Z,24.43
2018-07-20T19:44:49.963Z,24.38
2018-07-20T19:46:50.503Z,24.37
2018-07-20T19:48:50.770Z,24.38
2018-07-20T19:50:49.943Z,24.40
2018-07-20T19:52:50.137Z,24.40
2018-07-20T19:54:50.496Z,24.33
2018-07-20T19:56:50.037Z,24.33
2018-07-20T19:58:50.868Z,24.24
2018-07-20T20:00:50.179Z,24.23
2018-07-20T20:02:50.385Z,24.20
2018-07-20T20:04:50.110Z,24.17
2018-07-20T20:06:50.463Z,24.15
2018-07-20T20:08:50.788Z,24.06
2018-07-20T20:10:50.138Z,24.04
2018-07-20T20:12:50.370Z,24.03
2018-07-20T20:14:50.648Z,24.02
2018-07-20T20:16:50.268Z,24.06
2018-07-20T20:18:50.619Z,24.08
2018-07-20T20:20:50.815Z,24.16
2018-07-20T20:22:50.108Z,24.36
2018-07-20T20:24:50.509Z,24.44
2018-07-20T20:26:50.081Z,24.5
2018-07-20T20:28:50.320Z,24.5
2018-07-20T20:30:50.643Z,24.5
2018-07-20T20:32:49.927Z,24.6
2018-07-20T20:34:50.523Z,24.6
2018-07-20T20:36:49.950Z,24.6
2018-07-20T20:38:50.182Z,24.6
2018-07-20T20:40:50.484Z,24.6
2018-07-20T20:42:49.936Z,24.6
2018-07-20T20:44:50.191Z,24.6
2018-07-20T20:46:50.739Z,24.6
2018-07-20T20:48:50.174Z,24.7
2018-07-20T20:50:50.630Z,24.7
2018-07-20T20:52:50.230Z,24.6
2018-07-20T20:54:50.419Z,24.7
2018-07-20T20:56:50.009Z,24.6
2018-07-20T20:58:50.775Z,24.6
2018-07-20T21:00:50.310Z,24.6
2018-07-20T21:02:50.613Z,24.6
2018-07-20T21:04:50.412Z,24.6
2018-07-20T21:06:50.078Z,24.6
2018-07-20T21:08:50.429Z,24.6
2018-07-20T21:10:50.074Z,24.6
2018-07-20T21:12:50.534Z,24.6
2018-07-20T21:14:49.918Z,24.57
2018-07-20T21:16:50.495Z,24.55
2018-07-20T21:18:50.771Z,24.51
2018-07-20T21:20:49.992Z,24.47
2018-07-20T21:22:50.306Z,24.44
2018-07-20T21:24:50.686Z,24.35
2018-07-20T21:26:50.346Z,24.24
2018-07-20T21:28:50.691Z,24.15
2018-07-20T21:30:50.047Z,24.11
2018-07-20T21:32:50.394Z,24.00
2018-07-20T21:34:50.074Z,23.96
2018-07-20T21:36:50.634Z,23.91
2018-07-20T21:38:50.198Z,23.76
2018-07-20T21:40:50.573Z,23.73
2018-07-20T21:42:49.958Z,23.62
2018-07-20T21:44:50.298Z,23.60
2018-07-20T21:46:50.708Z,23.53
2018-07-20T21:48:50.438Z,23.50
2018-07-20T21:50:50.851Z,23.41
2018-07-20T21:52:50.203Z,23.39
2018-07-20T21:54:50.760Z,23.36
2018-07-20T21:56:50.378Z,23.27
2018-07-20T21:58:50.614Z,23.18
2018-07-20T22:00:49.880Z,23.15
2018-07-20T22:02:50.332Z,23.08
2018-07-20T22:04:50.042Z,23.04
2018-07-20T22:06:50.613Z,23.04
2018-07-20T22:08:49.990Z,22.95
2018-07-20T22:10:50.290Z,22.88
2018-07-20T22:12:50.545Z,22.86
2018-07-20T22:14:49.945Z,22.84
2018-07-20T22:16:50.540Z,22.79
2018-07-20T22:18:49.902Z,22.72
2018-07-20T22:20:50.323Z,22.70
2018-07-20T22:22:50.629Z,22.63
2018-07-20T22:24:50.137Z,22.61
2018-07-20T22:26:50.691Z,22.56
2018-07-20T22:28:50.814Z,22.57
2018-07-20T22:30:50.068Z,22.59
2018-07-20T22:32:50.487Z,22.62
2018-07-20T22:34:50.285Z,22.66
2018-07-20T22:36:50.630Z,22.68
2018-07-20T22:38:50.848Z,22.68
2018-07-20T22:40:50.141Z,22.67
2018-07-20T22:42:50.436Z,22.67
2018-07-20T22:44:50.641Z,22.63
2018-07-20T22:46:50.101Z,22.57
2018-07-20T22:48:50.394Z,22.55
2018-07-20T22:50:50.715Z,22.54
2018-07-20T22:52:50.136Z,22.47
2018-07-20T22:54:50.447Z,22.39
2018-07-20T22:56:49.924Z,22.36
2018-07-20T22:58:50.256Z,22.27
2018-07-20T23:00:50.566Z,22.22
2018-07-20T23:02:50.182Z,22.10
2018-07-20T23:04:50.755Z,22.06
2018-07-20T23:06:50.126Z,21.95
2018-07-20T23:08:50.467Z,21.95
2018-07-20T23:10:50.748Z,21.79
2018-07-20T23:12:49.916Z,21.74
2018-07-20T23:14:50.222Z,21.64
2018-07-20T23:16:50.713Z,21.59
2018-07-20T23:18:49.928Z,21.51
2018-07-20T23:20:50.240Z,21.51
2018-07-20T23:22:50.630Z,21.40
2018-07-20T23:24:50.230Z,21.38
2018-07-20T23:26:50.813Z,21.36
2018-07-20T23:28:50.021Z,21.33
2018-07-20T23:30:50.246Z,21.33
2018-07-20T23:32:50.517Z,21.37
2018-07-20T23:34:50.460Z,21.38
2018-07-20T23:36:50.778Z,21.39
2018-07-20T23:38:49.981Z,21.36
2018-07-20T23:40:50.273Z,21.34
2018-07-20T23:42:50.549Z,21.29
2018-07-20T23:44:50.809Z,21.26
2018-07-20T23:46:50.380Z,21.20
2018-07-20T23:48:50.630Z,21.17
2018-07-20T23:50:49.904Z,21.14
2018-07-20T23:52:50.058Z,21.11
2018-07-20T23:54:50.418Z,21.11
2018-07-20T23:56:50.114Z,21.07
2018-07-20T23:58:50.454Z,21.06
